< Cyclone 198804 1988 Season Cyclone 198901 >
Cyclone 198805 (HERBIE)
General InformationTrack Information on Google MapsDetailed Wind InformationList of All Images || ResourceGoogle EarthGE AnimationAtom FeedGeoJSON
Detalied Best Track (Time Zone = UTC)
Year Month Day Hour Lat. Long. Pressure (hPa) Wind (kt) Class Image Chart
1988 5 17 03 -6.7 91.6 1000 25 2 Image --
1988 5 17 06 -6.9 92.0 999 30 2 Image --
1988 5 17 12 -7.5 92.8 998 30 2 Image --
1988 5 17 18 -8.2 93.4 997 30 2 Image --
1988 5 18 00 -8.8 94.1 995 35 3 Image --
1988 5 18 06 -9.4 95.3 992 40 3 Image --
1988 5 18 12 -10.3 95.8 990 40 3 Image --
1988 5 18 18 -11.4 96.1 991 40 3 Image --
1988 5 19 00 -12.2 96.4 992 40 3 Image --
1988 5 19 06 -13.1 97.1 993 35 3 Image --
1988 5 19 12 -17.1 99.0 995 35 3 Image --
1988 5 19 18 -17.9 100.0 995 35 3 Image --
1988 5 20 00 -18.9 101.0 995 40 3 Image --
1988 5 20 06 -21.2 104.5 992 40 3 Image --
1988 5 20 12 -24.4 108.0 990 45 3 Image --
1988 5 20 18 -24.9 111.7 985 50 4 Image --
1988 5 21 00 -25.9 115.7 982 50 4 Image --
1988 5 21 06 -27.6 117.0 992 45 3 Image --
1988 5 21 12 -28.6 121.3 992 40 3 Image --
1988 5 21 18 -31.9 129.0 990 40 3 Image --
< Cyclone 198804 1988 Season Cyclone 198901 >

Help